sensor_id;sensor_type;location;lat;lon;timestamp;P1;durP1;ratioP1;P2;durP2;ratioP2
54993;SDS011;40891;47.242;8.648;2023-06-24T00:02:12;7.13;;;4.13;;
54993;SDS011;40891;47.242;8.648;2023-06-24T00:04:38;5.95;;;3.85;;
54993;SDS011;40891;47.242;8.648;2023-06-24T00:07:03;4.57;;;4.10;;
54993;SDS011;40891;47.242;8.648;2023-06-24T00:09:29;8.15;;;4.28;;
54993;SDS011;40891;47.242;8.648;2023-06-24T00:11:55;5.70;;;4.00;;
54993;SDS011;40891;47.242;8.648;2023-06-24T00:14:21;5.75;;;4.38;;
54993;SDS011;40891;47.242;8.648;2023-06-24T00:16:48;5.05;;;4.18;;
54993;SDS011;40891;47.242;8.648;2023-06-24T00:19:17;7.30;;;4.43;;
54993;SDS011;40891;47.242;8.648;2023-06-24T00:21:44;5.40;;;3.90;;
54993;SDS011;40891;47.242;8.648;2023-06-24T00:24:09;5.35;;;3.83;;
54993;SDS011;40891;47.242;8.648;2023-06-24T00:26:34;5.45;;;4.15;;
54993;SDS011;40891;47.242;8.648;2023-06-24T00:29:00;7.10;;;4.22;;
54993;SDS011;40891;47.242;8.648;2023-06-24T00:31:25;8.82;;;4.30;;
54993;SDS011;40891;47.242;8.648;2023-06-24T00:33:50;7.32;;;4.03;;
54993;SDS011;40891;47.242;8.648;2023-06-24T00:36:17;8.15;;;4.60;;
54993;SDS011;40891;47.242;8.648;2023-06-24T00:38:42;7.65;;;4.93;;
54993;SDS011;40891;47.242;8.648;2023-06-24T00:41:08;5.40;;;4.47;;
54993;SDS011;40891;47.242;8.648;2023-06-24T00:43:34;8.05;;;5.07;;
54993;SDS011;40891;47.242;8.648;2023-06-24T00:45:59;8.70;;;5.00;;
54993;SDS011;40891;47.242;8.648;2023-06-24T00:48:25;8.57;;;5.22;;
54993;SDS011;40891;47.242;8.648;2023-06-24T00:50:50;8.68;;;4.93;;
54993;SDS011;40891;47.242;8.648;2023-06-24T00:53:16;8.57;;;4.97;;
54993;SDS011;40891;47.242;8.648;2023-06-24T00:55:42;6.13;;;4.63;;
54993;SDS011;40891;47.242;8.648;2023-06-24T00:58:09;6.70;;;4.78;;
54993;SDS011;40891;47.242;8.648;2023-06-24T01:00:34;10.13;;;5.10;;
54993;SDS011;40891;47.242;8.648;2023-06-24T01:03:00;10.52;;;4.78;;
54993;SDS011;40891;47.242;8.648;2023-06-24T01:05:25;6.97;;;4.65;;
54993;SDS011;40891;47.242;8.648;2023-06-24T01:07:52;8.25;;;4.60;;
54993;SDS011;40891;47.242;8.648;2023-06-24T01:10:22;7.72;;;4.50;;
54993;SDS011;40891;47.242;8.648;2023-06-24T01:12:48;10.30;;;4.95;;
54993;SDS011;40891;47.242;8.648;2023-06-24T01:15:14;7.35;;;4.88;;
54993;SDS011;40891;47.242;8.648;2023-06-24T01:20:29;8.25;;;4.90;;
54993;SDS011;40891;47.242;8.648;2023-06-24T01:34:01;6.72;;;4.97;;
54993;SDS011;40891;47.242;8.648;2023-06-24T01:36:31;6.00;;;4.55;;
54993;SDS011;40891;47.242;8.648;2023-06-24T01:39:01;5.65;;;4.35;;
54993;SDS011;40891;47.242;8.648;2023-06-24T01:41:31;10.63;;;4.50;;
54993;SDS011;40891;47.242;8.648;2023-06-24T01:43:59;7.15;;;4.15;;
54993;SDS011;40891;47.242;8.648;2023-06-24T01:46:26;6.65;;;4.63;;
54993;SDS011;40891;47.242;8.648;2023-06-24T01:48:54;7.78;;;4.50;;
54993;SDS011;40891;47.242;8.648;2023-06-24T01:51:22;6.10;;;4.63;;
54993;SDS011;40891;47.242;8.648;2023-06-24T01:53:51;8.00;;;4.80;;
54993;SDS011;40891;47.242;8.648;2023-06-24T01:56:18;9.15;;;5.10;;
54993;SDS011;40891;47.242;8.648;2023-06-24T01:58:46;7.13;;;4.82;;
54993;SDS011;40891;47.242;8.648;2023-06-24T02:01:15;5.97;;;4.72;;
54993;SDS011;40891;47.242;8.648;2023-06-24T02:03:41;6.03;;;4.95;;
54993;SDS011;40891;47.242;8.648;2023-06-24T02:06:08;7.90;;;4.72;;
54993;SDS011;40891;47.242;8.648;2023-06-24T02:08:37;8.68;;;4.93;;
54993;SDS011;40891;47.242;8.648;2023-06-24T02:11:05;6.40;;;4.72;;
54993;SDS011;40891;47.242;8.648;2023-06-24T02:13:33;8.43;;;4.45;;
54993;SDS011;40891;47.242;8.648;2023-06-24T02:16:00;6.80;;;4.72;;
54993;SDS011;40891;47.242;8.648;2023-06-24T02:18:28;7.00;;;4.90;;
54993;SDS011;40891;47.242;8.648;2023-06-24T02:20:53;6.97;;;4.47;;
54993;SDS011;40891;47.242;8.648;2023-06-24T02:23:21;5.00;;;4.25;;
54993;SDS011;40891;47.242;8.648;2023-06-24T02:25:48;8.07;;;4.95;;
54993;SDS011;40891;47.242;8.648;2023-06-24T02:28:15;7.32;;;5.00;;
54993;SDS011;40891;47.242;8.648;2023-06-24T02:30:42;8.52;;;4.80;;
54993;SDS011;40891;47.242;8.648;2023-06-24T02:33:08;6.40;;;4.80;;
54993;SDS011;40891;47.242;8.648;2023-06-24T02:35:36;6.25;;;4.50;;
54993;SDS011;40891;47.242;8.648;2023-06-24T02:38:02;6.32;;;4.53;;
54993;SDS011;40891;47.242;8.648;2023-06-24T02:40:28;9.35;;;4.72;;
54993;SDS011;40891;47.242;8.648;2023-06-24T02:42:54;7.40;;;5.05;;
54993;SDS011;40891;47.242;8.648;2023-06-24T02:45:21;6.88;;;5.30;;
54993;SDS011;40891;47.242;8.648;2023-06-24T02:47:46;6.00;;;5.10;;
54993;SDS011;40891;47.242;8.648;2023-06-24T02:50:13;7.03;;;5.07;;
54993;SDS011;40891;47.242;8.648;2023-06-24T02:52:39;10.20;;;4.93;;
54993;SDS011;40891;47.242;8.648;2023-06-24T02:55:05;8.40;;;4.43;;
54993;SDS011;40891;47.242;8.648;2023-06-24T02:57:32;6.20;;;5.03;;
54993;SDS011;40891;47.242;8.648;2023-06-24T02:59:59;7.45;;;5.03;;
54993;SDS011;40891;47.242;8.648;2023-06-24T03:02:24;6.20;;;4.33;;
54993;SDS011;40891;47.242;8.648;2023-06-24T03:04:50;7.78;;;5.20;;
54993;SDS011;40891;47.242;8.648;2023-06-24T03:07:17;8.67;;;5.40;;
54993;SDS011;40891;47.242;8.648;2023-06-24T03:09:45;6.80;;;4.95;;
54993;SDS011;40891;47.242;8.648;2023-06-24T03:12:11;8.10;;;5.10;;
54993;SDS011;40891;47.242;8.648;2023-06-24T03:14:36;9.35;;;5.07;;
54993;SDS011;40891;47.242;8.648;2023-06-24T03:17:02;5.97;;;4.63;;
54993;SDS011;40891;47.242;8.648;2023-06-24T03:19:27;5.45;;;4.80;;
54993;SDS011;40891;47.242;8.648;2023-06-24T03:21:53;7.90;;;4.80;;
54993;SDS011;40891;47.242;8.648;2023-06-24T03:24:18;10.10;;;5.03;;
54993;SDS011;40891;47.242;8.648;2023-06-24T03:26:43;5.78;;;5.03;;
54993;SDS011;40891;47.242;8.648;2023-06-24T03:29:09;6.95;;;4.80;;
54993;SDS011;40891;47.242;8.648;2023-06-24T03:31:35;6.32;;;5.25;;
54993;SDS011;40891;47.242;8.648;2023-06-24T03:34:00;6.30;;;5.05;;
54993;SDS011;40891;47.242;8.648;2023-06-24T03:36:26;6.87;;;4.70;;
54993;SDS011;40891;47.242;8.648;2023-06-24T03:38:51;7.03;;;5.40;;
54993;SDS011;40891;47.242;8.648;2023-06-24T03:41:17;6.53;;;4.90;;
54993;SDS011;40891;47.242;8.648;2023-06-24T03:43:42;8.60;;;5.10;;
54993;SDS011;40891;47.242;8.648;2023-06-24T03:46:09;6.93;;;5.10;;
54993;SDS011;40891;47.242;8.648;2023-06-24T03:48:35;6.35;;;5.07;;
54993;SDS011;40891;47.242;8.648;2023-06-24T03:51:00;10.90;;;5.23;;
54993;SDS011;40891;47.242;8.648;2023-06-24T03:53:26;8.13;;;5.22;;
54993;SDS011;40891;47.242;8.648;2023-06-24T03:55:51;7.38;;;5.15;;
54993;SDS011;40891;47.242;8.648;2023-06-24T03:58:16;7.73;;;4.83;;
54993;SDS011;40891;47.242;8.648;2023-06-24T04:00:42;11.27;;;5.22;;
54993;SDS011;40891;47.242;8.648;2023-06-24T04:03:09;8.88;;;4.50;;
54993;SDS011;40891;47.242;8.648;2023-06-24T04:05:34;9.07;;;5.00;;
54993;SDS011;40891;47.242;8.648;2023-06-24T04:08:00;8.05;;;5.00;;
54993;SDS011;40891;47.242;8.648;2023-06-24T04:10:25;10.77;;;5.30;;
54993;SDS011;40891;47.242;8.648;2023-06-24T04:12:50;5.50;;;4.43;;
54993;SDS011;40891;47.242;8.648;2023-06-24T04:15:15;6.70;;;4.78;;
54993;SDS011;40891;47.242;8.648;2023-06-24T04:17:41;7.13;;;5.13;;
54993;SDS011;40891;47.242;8.648;2023-06-24T04:20:06;5.90;;;4.63;;
54993;SDS011;40891;47.242;8.648;2023-06-24T04:22:33;6.50;;;5.22;;
54993;SDS011;40891;47.242;8.648;2023-06-24T04:25:00;7.63;;;5.18;;
54993;SDS011;40891;47.242;8.648;2023-06-24T04:27:25;7.07;;;5.13;;
54993;SDS011;40891;47.242;8.648;2023-06-24T04:29:50;6.32;;;4.97;;
54993;SDS011;40891;47.242;8.648;2023-06-24T04:32:16;6.30;;;4.95;;
54993;SDS011;40891;47.242;8.648;2023-06-24T04:34:41;8.95;;;5.55;;
54993;SDS011;40891;47.242;8.648;2023-06-24T04:37:06;7.65;;;5.72;;
54993;SDS011;40891;47.242;8.648;2023-06-24T04:39:32;7.45;;;6.38;;
54993;SDS011;40891;47.242;8.648;2023-06-24T04:41:58;8.18;;;6.03;;
54993;SDS011;40891;47.242;8.648;2023-06-24T04:44:23;8.10;;;6.10;;
54993;SDS011;40891;47.242;8.648;2023-06-24T04:46:48;8.23;;;6.00;;
54993;SDS011;40891;47.242;8.648;2023-06-24T04:49:13;10.63;;;6.50;;
54993;SDS011;40891;47.242;8.648;2023-06-24T04:51:39;10.68;;;6.35;;
54993;SDS011;40891;47.242;8.648;2023-06-24T04:54:05;10.70;;;6.85;;
54993;SDS011;40891;47.242;8.648;2023-06-24T04:56:31;8.05;;;6.72;;
54993;SDS011;40891;47.242;8.648;2023-06-24T04:58:56;8.85;;;7.10;;
54993;SDS011;40891;47.242;8.648;2023-06-24T05:01:21;10.93;;;6.63;;
54993;SDS011;40891;47.242;8.648;2023-06-24T05:03:47;8.98;;;6.75;;
54993;SDS011;40891;47.242;8.648;2023-06-24T05:06:12;10.48;;;6.60;;
54993;SDS011;40891;47.242;8.648;2023-06-24T05:08:37;9.95;;;6.55;;
54993;SDS011;40891;47.242;8.648;2023-06-24T05:11:03;8.48;;;6.85;;
54993;SDS011;40891;47.242;8.648;2023-06-24T05:13:28;8.40;;;6.47;;
54993;SDS011;40891;47.242;8.648;2023-06-24T05:15:54;7.10;;;6.18;;
54993;SDS011;40891;47.242;8.648;2023-06-24T05:18:19;8.65;;;6.82;;
54993;SDS011;40891;47.242;8.648;2023-06-24T05:20:44;11.65;;;7.03;;
54993;SDS011;40891;47.242;8.648;2023-06-24T05:23:10;8.90;;;6.70;;
54993;SDS011;40891;47.242;8.648;2023-06-24T05:25:35;10.05;;;7.53;;
54993;SDS011;40891;47.242;8.648;2023-06-24T05:28:00;9.20;;;7.13;;
54993;SDS011;40891;47.242;8.648;2023-06-24T05:30:26;10.85;;;6.78;;
54993;SDS011;40891;47.242;8.648;2023-06-24T05:32:51;9.90;;;6.15;;
54993;SDS011;40891;47.242;8.648;2023-06-24T05:35:16;8.68;;;6.80;;
54993;SDS011;40891;47.242;8.648;2023-06-24T05:37:42;10.02;;;6.57;;
54993;SDS011;40891;47.242;8.648;2023-06-24T05:40:07;10.45;;;6.93;;
54993;SDS011;40891;47.242;8.648;2023-06-24T05:42:34;8.13;;;6.43;;
54993;SDS011;40891;47.242;8.648;2023-06-24T05:44:59;9.80;;;6.57;;
54993;SDS011;40891;47.242;8.648;2023-06-24T05:47:25;7.82;;;6.60;;
54993;SDS011;40891;47.242;8.648;2023-06-24T05:49:50;10.18;;;6.95;;
54993;SDS011;40891;47.242;8.648;2023-06-24T05:52:15;8.38;;;6.45;;
54993;SDS011;40891;47.242;8.648;2023-06-24T05:54:41;9.65;;;6.53;;
54993;SDS011;40891;47.242;8.648;2023-06-24T05:57:06;8.23;;;6.65;;
54993;SDS011;40891;47.242;8.648;2023-06-24T05:59:32;8.30;;;6.78;;
54993;SDS011;40891;47.242;8.648;2023-06-24T06:01:58;11.15;;;7.18;;
54993;SDS011;40891;47.242;8.648;2023-06-24T06:04:24;9.77;;;6.97;;
54993;SDS011;40891;47.242;8.648;2023-06-24T06:06:49;8.60;;;6.18;;
54993;SDS011;40891;47.242;8.648;2023-06-24T06:09:14;9.23;;;6.95;;
54993;SDS011;40891;47.242;8.648;2023-06-24T06:11:40;8.48;;;7.55;;
54993;SDS011;40891;47.242;8.648;2023-06-24T06:14:05;10.02;;;7.28;;
54993;SDS011;40891;47.242;8.648;2023-06-24T06:16:30;9.25;;;6.57;;
54993;SDS011;40891;47.242;8.648;2023-06-24T06:18:56;9.15;;;7.13;;
54993;SDS011;40891;47.242;8.648;2023-06-24T06:21:21;9.80;;;6.85;;
54993;SDS011;40891;47.242;8.648;2023-06-24T06:23:47;9.55;;;7.25;;
54993;SDS011;40891;47.242;8.648;2023-06-24T06:26:12;8.10;;;6.45;;
54993;SDS011;40891;47.242;8.648;2023-06-24T06:28:37;8.88;;;6.47;;
54993;SDS011;40891;47.242;8.648;2023-06-24T06:31:03;9.18;;;6.63;;
54993;SDS011;40891;47.242;8.648;2023-06-24T06:33:28;10.27;;;6.55;;
54993;SDS011;40891;47.242;8.648;2023-06-24T06:35:53;14.07;;;7.38;;
54993;SDS011;40891;47.242;8.648;2023-06-24T06:38:18;10.48;;;6.38;;
54993;SDS011;40891;47.242;8.648;2023-06-24T06:40:44;8.07;;;6.30;;
54993;SDS011;40891;47.242;8.648;2023-06-24T06:43:09;7.55;;;6.35;;
54993;SDS011;40891;47.242;8.648;2023-06-24T06:45:34;10.15;;;6.50;;
54993;SDS011;40891;47.242;8.648;2023-06-24T06:48:00;6.68;;;5.75;;
54993;SDS011;40891;47.242;8.648;2023-06-24T06:50:25;8.20;;;6.25;;
54993;SDS011;40891;47.242;8.648;2023-06-24T06:52:50;9.98;;;5.72;;
54993;SDS011;40891;47.242;8.648;2023-06-24T06:55:16;13.00;;;6.03;;
54993;SDS011;40891;47.242;8.648;2023-06-24T06:57:41;10.10;;;5.88;;
54993;SDS011;40891;47.242;8.648;2023-06-24T07:00:07;9.20;;;6.32;;
54993;SDS011;40891;47.242;8.648;2023-06-24T07:02:33;7.05;;;6.10;;
54993;SDS011;40891;47.242;8.648;2023-06-24T07:04:59;7.05;;;6.00;;
54993;SDS011;40891;47.242;8.648;2023-06-24T07:07:25;9.10;;;6.35;;
54993;SDS011;40891;47.242;8.648;2023-06-24T07:09:51;7.78;;;5.97;;
54993;SDS011;40891;47.242;8.648;2023-06-24T07:12:16;7.13;;;6.03;;
54993;SDS011;40891;47.242;8.648;2023-06-24T07:14:42;10.75;;;6.28;;
54993;SDS011;40891;47.242;8.648;2023-06-24T07:17:07;12.10;;;6.55;;
54993;SDS011;40891;47.242;8.648;2023-06-24T07:19:33;7.97;;;5.55;;
54993;SDS011;40891;47.242;8.648;2023-06-24T07:21:58;7.65;;;5.90;;
54993;SDS011;40891;47.242;8.648;2023-06-24T07:24:23;9.07;;;6.22;;
54993;SDS011;40891;47.242;8.648;2023-06-24T07:26:49;8.02;;;6.00;;
54993;SDS011;40891;47.242;8.648;2023-06-24T07:29:14;6.85;;;4.88;;
54993;SDS011;40891;47.242;8.648;2023-06-24T07:31:39;7.68;;;5.60;;
54993;SDS011;40891;47.242;8.648;2023-06-24T07:34:05;7.63;;;4.85;;
54993;SDS011;40891;47.242;8.648;2023-06-24T07:36:30;8.20;;;4.90;;
54993;SDS011;40891;47.242;8.648;2023-06-24T07:38:56;6.30;;;4.95;;
54993;SDS011;40891;47.242;8.648;2023-06-24T07:41:21;7.45;;;5.45;;
54993;SDS011;40891;47.242;8.648;2023-06-24T07:43:46;6.05;;;4.90;;
54993;SDS011;40891;47.242;8.648;2023-06-24T07:46:11;6.10;;;4.78;;
54993;SDS011;40891;47.242;8.648;2023-06-24T07:48:37;6.82;;;5.55;;
54993;SDS011;40891;47.242;8.648;2023-06-24T07:51:02;7.10;;;5.80;;
54993;SDS011;40891;47.242;8.648;2023-06-24T07:53:27;8.60;;;5.07;;
54993;SDS011;40891;47.242;8.648;2023-06-24T07:55:53;7.80;;;5.07;;
54993;SDS011;40891;47.242;8.648;2023-06-24T07:58:18;7.38;;;5.90;;
54993;SDS011;40891;47.242;8.648;2023-06-24T08:00:46;11.10;;;5.68;;
54993;SDS011;40891;47.242;8.648;2023-06-24T08:03:12;9.00;;;5.20;;
54993;SDS011;40891;47.242;8.648;2023-06-24T08:05:38;8.77;;;5.45;;
54993;SDS011;40891;47.242;8.648;2023-06-24T08:08:04;11.38;;;6.22;;
54993;SDS011;40891;47.242;8.648;2023-06-24T08:10:30;6.57;;;5.65;;
54993;SDS011;40891;47.242;8.648;2023-06-24T08:12:55;10.48;;;6.28;;
54993;SDS011;40891;47.242;8.648;2023-06-24T08:15:20;9.55;;;5.68;;
54993;SDS011;40891;47.242;8.648;2023-06-24T08:17:50;7.45;;;5.72;;
54993;SDS011;40891;47.242;8.648;2023-06-24T08:20:19;7.75;;;6.18;;
54993;SDS011;40891;47.242;8.648;2023-06-24T08:22:48;9.25;;;6.50;;
54993;SDS011;40891;47.242;8.648;2023-06-24T08:25:14;10.07;;;6.38;;
54993;SDS011;40891;47.242;8.648;2023-06-24T08:27:40;9.10;;;6.25;;
54993;SDS011;40891;47.242;8.648;2023-06-24T08:30:05;6.90;;;6.07;;
54993;SDS011;40891;47.242;8.648;2023-06-24T08:32:31;7.97;;;5.95;;
54993;SDS011;40891;47.242;8.648;2023-06-24T08:34:57;7.45;;;5.88;;
54993;SDS011;40891;47.242;8.648;2023-06-24T08:37:22;7.55;;;5.53;;
54993;SDS011;40891;47.242;8.648;2023-06-24T08:39:48;7.35;;;5.50;;
54993;SDS011;40891;47.242;8.648;2023-06-24T08:42:13;6.47;;;5.63;;
54993;SDS011;40891;47.242;8.648;2023-06-24T08:44:38;6.68;;;5.25;;
54993;SDS011;40891;47.242;8.648;2023-06-24T08:47:04;10.38;;;5.97;;
54993;SDS011;40891;47.242;8.648;2023-06-24T08:49:30;8.02;;;5.72;;
54993;SDS011;40891;47.242;8.648;2023-06-24T08:52:03;6.00;;;5.20;;
54993;SDS011;40891;47.242;8.648;2023-06-24T08:54:34;6.95;;;5.60;;
54993;SDS011;40891;47.242;8.648;2023-06-24T08:57:01;7.57;;;6.55;;
54993;SDS011;40891;47.242;8.648;2023-06-24T08:59:36;8.32;;;5.03;;
54993;SDS011;40891;47.242;8.648;2023-06-24T09:02:02;6.75;;;5.70;;
54993;SDS011;40891;47.242;8.648;2023-06-24T09:04:28;8.13;;;5.45;;
54993;SDS011;40891;47.242;8.648;2023-06-24T09:06:53;7.40;;;5.68;;
54993;SDS011;40891;47.242;8.648;2023-06-24T09:09:19;7.57;;;5.32;;
54993;SDS011;40891;47.242;8.648;2023-06-24T09:14:18;7.15;;;5.60;;
54993;SDS011;40891;47.242;8.648;2023-06-24T09:16:51;8.10;;;5.53;;
54993;SDS011;40891;47.242;8.648;2023-06-24T09:19:20;5.95;;;5.05;;
54993;SDS011;40891;47.242;8.648;2023-06-24T09:21:46;8.15;;;4.97;;
54993;SDS011;40891;47.242;8.648;2023-06-24T09:24:12;7.32;;;5.20;;
54993;SDS011;40891;47.242;8.648;2023-06-24T09:26:37;6.25;;;4.90;;
54993;SDS011;40891;47.242;8.648;2023-06-24T09:29:02;6.43;;;5.15;;
54993;SDS011;40891;47.242;8.648;2023-06-24T09:31:29;7.05;;;5.03;;
54993;SDS011;40891;47.242;8.648;2023-06-24T09:33:56;8.50;;;5.40;;
54993;SDS011;40891;47.242;8.648;2023-06-24T09:36:23;6.13;;;4.80;;
54993;SDS011;40891;47.242;8.648;2023-06-24T09:38:48;7.88;;;4.45;;
54993;SDS011;40891;47.242;8.648;2023-06-24T09:41:15;6.00;;;4.43;;
54993;SDS011;40891;47.242;8.648;2023-06-24T09:43:41;6.38;;;4.53;;
54993;SDS011;40891;47.242;8.648;2023-06-24T09:46:07;5.45;;;4.13;;
54993;SDS011;40891;47.242;8.648;2023-06-24T09:48:33;6.10;;;5.03;;
54993;SDS011;40891;47.242;8.648;2023-06-24T09:51:00;6.03;;;4.80;;
54993;SDS011;40891;47.242;8.648;2023-06-24T09:53:31;10.23;;;5.25;;
54993;SDS011;40891;47.242;8.648;2023-06-24T09:55:59;8.02;;;5.35;;
54993;SDS011;40891;47.242;8.648;2023-06-24T09:58:26;6.38;;;4.38;;
54993;SDS011;40891;47.242;8.648;2023-06-24T10:00:53;5.75;;;4.55;;
54993;SDS011;40891;47.242;8.648;2023-06-24T10:03:20;5.65;;;4.30;;
54993;SDS011;40891;47.242;8.648;2023-06-24T10:05:46;7.57;;;4.22;;
54993;SDS011;40891;47.242;8.648;2023-06-24T10:08:13;6.28;;;4.00;;
54993;SDS011;40891;47.242;8.648;2023-06-24T10:10:38;5.20;;;3.78;;
54993;SDS011;40891;47.242;8.648;2023-06-24T10:13:04;5.25;;;4.03;;
54993;SDS011;40891;47.242;8.648;2023-06-24T10:15:29;6.78;;;4.03;;
54993;SDS011;40891;47.242;8.648;2023-06-24T10:17:55;5.95;;;3.90;;
54993;SDS011;40891;47.242;8.648;2023-06-24T10:20:24;4.28;;;3.53;;
54993;SDS011;40891;47.242;8.648;2023-06-24T10:22:50;4.18;;;3.70;;
54993;SDS011;40891;47.242;8.648;2023-06-24T10:25:16;4.75;;;3.78;;
54993;SDS011;40891;47.242;8.648;2023-06-24T10:27:41;5.30;;;3.92;;
54993;SDS011;40891;47.242;8.648;2023-06-24T10:30:07;5.43;;;3.63;;
54993;SDS011;40891;47.242;8.648;2023-06-24T10:32:40;7.80;;;3.70;;
54993;SDS011;40891;47.242;8.648;2023-06-24T10:35:25;4.57;;;3.58;;
54993;SDS011;40891;47.242;8.648;2023-06-24T10:37:58;6.47;;;3.60;;
54993;SDS011;40891;47.242;8.648;2023-06-24T10:40:34;3.50;;;3.20;;
54993;SDS011;40891;47.242;8.648;2023-06-24T10:45:49;3.88;;;2.72;;
54993;SDS011;40891;47.242;8.648;2023-06-24T10:48:16;4.93;;;2.92;;
54993;SDS011;40891;47.242;8.648;2023-06-24T10:50:41;5.25;;;3.40;;
54993;SDS011;40891;47.242;8.648;2023-06-24T10:53:07;3.60;;;3.13;;
54993;SDS011;40891;47.242;8.648;2023-06-24T10:55:33;3.33;;;2.83;;
54993;SDS011;40891;47.242;8.648;2023-06-24T10:58:07;3.30;;;2.58;;
54993;SDS011;40891;47.242;8.648;2023-06-24T11:00:34;6.03;;;3.25;;
54993;SDS011;40891;47.242;8.648;2023-06-24T11:05:34;3.78;;;2.92;;
54993;SDS011;40891;47.242;8.648;2023-06-24T11:08:01;3.53;;;3.08;;
54993;SDS011;40891;47.242;8.648;2023-06-24T11:10:27;5.35;;;2.97;;
54993;SDS011;40891;47.242;8.648;2023-06-24T11:12:52;5.32;;;2.90;;
54993;SDS011;40891;47.242;8.648;2023-06-24T11:15:18;3.22;;;2.70;;
54993;SDS011;40891;47.242;8.648;2023-06-24T11:17:44;3.55;;;2.60;;
54993;SDS011;40891;47.242;8.648;2023-06-24T11:20:13;2.83;;;2.60;;
54993;SDS011;40891;47.242;8.648;2023-06-24T11:22:39;3.58;;;2.92;;
54993;SDS011;40891;47.242;8.648;2023-06-24T11:25:06;5.40;;;2.80;;
54993;SDS011;40891;47.242;8.648;2023-06-24T11:27:31;3.08;;;2.72;;
54993;SDS011;40891;47.242;8.648;2023-06-24T11:29:57;4.25;;;2.47;;
54993;SDS011;40891;47.242;8.648;2023-06-24T11:32:25;3.10;;;2.80;;
54993;SDS011;40891;47.242;8.648;2023-06-24T11:35:00;3.00;;;2.63;;
54993;SDS011;40891;47.242;8.648;2023-06-24T11:37:30;5.00;;;2.75;;
54993;SDS011;40891;47.242;8.648;2023-06-24T11:40:03;4.97;;;3.00;;
54993;SDS011;40891;47.242;8.648;2023-06-24T11:42:30;3.95;;;3.00;;
54993;SDS011;40891;47.242;8.648;2023-06-24T11:45:01;4.32;;;3.20;;
54993;SDS011;40891;47.242;8.648;2023-06-24T11:47:33;2.75;;;2.55;;
54993;SDS011;40891;47.242;8.648;2023-06-24T11:49:59;4.95;;;2.80;;
54993;SDS011;40891;47.242;8.648;2023-06-24T11:52:40;5.20;;;3.10;;
54993;SDS011;40891;47.242;8.648;2023-06-24T11:55:21;3.17;;;2.88;;
54993;SDS011;40891;47.242;8.648;2023-06-24T11:57:55;4.35;;;2.63;;
54993;SDS011;40891;47.242;8.648;2023-06-24T12:00:32;6.97;;;2.83;;
54993;SDS011;40891;47.242;8.648;2023-06-24T12:03:01;5.57;;;3.25;;
54993;SDS011;40891;47.242;8.648;2023-06-24T12:05:32;3.55;;;2.85;;
54993;SDS011;40891;47.242;8.648;2023-06-24T12:08:10;5.63;;;3.53;;
54993;SDS011;40891;47.242;8.648;2023-06-24T12:10:38;2.85;;;2.47;;
54993;SDS011;40891;47.242;8.648;2023-06-24T12:13:04;3.10;;;2.80;;
54993;SDS011;40891;47.242;8.648;2023-06-24T12:15:31;3.55;;;2.45;;
54993;SDS011;40891;47.242;8.648;2023-06-24T12:17:56;3.53;;;3.22;;
54993;SDS011;40891;47.242;8.648;2023-06-24T12:20:23;6.18;;;3.33;;
54993;SDS011;40891;47.242;8.648;2023-06-24T12:22:49;6.40;;;2.85;;
54993;SDS011;40891;47.242;8.648;2023-06-24T12:25:15;2.85;;;2.50;;
54993;SDS011;40891;47.242;8.648;2023-06-24T12:27:42;4.43;;;2.83;;
54993;SDS011;40891;47.242;8.648;2023-06-24T12:30:08;3.50;;;2.78;;
54993;SDS011;40891;47.242;8.648;2023-06-24T12:32:34;3.30;;;2.80;;
54993;SDS011;40891;47.242;8.648;2023-06-24T12:35:00;2.92;;;2.60;;
54993;SDS011;40891;47.242;8.648;2023-06-24T12:37:28;3.00;;;2.70;;
54993;SDS011;40891;47.242;8.648;2023-06-24T12:39:55;3.47;;;2.95;;
54993;SDS011;40891;47.242;8.648;2023-06-24T12:42:21;4.28;;;2.75;;
54993;SDS011;40891;47.242;8.648;2023-06-24T12:44:46;5.72;;;2.85;;
54993;SDS011;40891;47.242;8.648;2023-06-24T12:47:11;3.08;;;2.58;;
54993;SDS011;40891;47.242;8.648;2023-06-24T12:49:37;3.00;;;2.65;;
54993;SDS011;40891;47.242;8.648;2023-06-24T12:52:02;3.10;;;2.70;;
54993;SDS011;40891;47.242;8.648;2023-06-24T12:54:27;3.15;;;2.70;;
54993;SDS011;40891;47.242;8.648;2023-06-24T12:56:53;4.25;;;2.60;;
54993;SDS011;40891;47.242;8.648;2023-06-24T12:59:18;4.03;;;2.53;;
54993;SDS011;40891;47.242;8.648;2023-06-24T13:01:44;2.90;;;2.60;;
54993;SDS011;40891;47.242;8.648;2023-06-24T13:04:10;2.90;;;2.60;;
54993;SDS011;40891;47.242;8.648;2023-06-24T13:06:36;6.47;;;2.60;;
54993;SDS011;40891;47.242;8.648;2023-06-24T13:09:01;2.30;;;2.10;;
54993;SDS011;40891;47.242;8.648;2023-06-24T13:11:27;2.95;;;2.58;;
54993;SDS011;40891;47.242;8.648;2023-06-24T13:13:52;2.58;;;2.35;;
54993;SDS011;40891;47.242;8.648;2023-06-24T13:16:18;3.80;;;2.88;;
54993;SDS011;40891;47.242;8.648;2023-06-24T13:18:43;2.88;;;2.65;;
54993;SDS011;40891;47.242;8.648;2023-06-24T13:21:08;2.47;;;2.28;;
54993;SDS011;40891;47.242;8.648;2023-06-24T13:23:34;2.40;;;2.20;;
54993;SDS011;40891;47.242;8.648;2023-06-24T13:25:59;2.70;;;2.47;;
54993;SDS011;40891;47.242;8.648;2023-06-24T13:28:24;2.78;;;2.35;;
54993;SDS011;40891;47.242;8.648;2023-06-24T13:30:49;3.47;;;2.25;;
54993;SDS011;40891;47.242;8.648;2023-06-24T13:33:16;2.78;;;2.53;;
54993;SDS011;40891;47.242;8.648;2023-06-24T13:35:42;3.22;;;2.55;;
54993;SDS011;40891;47.242;8.648;2023-06-24T13:38:07;3.40;;;3.10;;
54993;SDS011;40891;47.242;8.648;2023-06-24T13:40:33;2.30;;;2.10;;
54993;SDS011;40891;47.242;8.648;2023-06-24T13:42:58;4.53;;;2.50;;
54993;SDS011;40891;47.242;8.648;2023-06-24T13:45:23;4.97;;;2.30;;
54993;SDS011;40891;47.242;8.648;2023-06-24T13:47:49;3.33;;;2.25;;
54993;SDS011;40891;47.242;8.648;2023-06-24T13:50:14;2.67;;;2.47;;
54993;SDS011;40891;47.242;8.648;2023-06-24T13:52:39;2.47;;;2.28;;
54993;SDS011;40891;47.242;8.648;2023-06-24T13:55:05;2.60;;;2.40;;
54993;SDS011;40891;47.242;8.648;2023-06-24T13:57:31;2.35;;;2.15;;
54993;SDS011;40891;47.242;8.648;2023-06-24T13:59:56;2.58;;;2.38;;
54993;SDS011;40891;47.242;8.648;2023-06-24T14:02:21;2.60;;;2.40;;
54993;SDS011;40891;47.242;8.648;2023-06-24T14:04:47;2.67;;;2.00;;
54993;SDS011;40891;47.242;8.648;2023-06-24T14:07:13;3.80;;;2.20;;
54993;SDS011;40891;47.242;8.648;2023-06-24T14:09:38;2.55;;;2.28;;
54993;SDS011;40891;47.242;8.648;2023-06-24T14:12:04;2.72;;;2.15;;
54993;SDS011;40891;47.242;8.648;2023-06-24T14:14:30;3.40;;;2.42;;
54993;SDS011;40891;47.242;8.648;2023-06-24T14:16:57;3.65;;;2.47;;
54993;SDS011;40891;47.242;8.648;2023-06-24T14:19:22;2.47;;;2.25;;
54993;SDS011;40891;47.242;8.648;2023-06-24T14:21:47;2.53;;;2.22;;
54993;SDS011;40891;47.242;8.648;2023-06-24T14:24:13;2.50;;;2.30;;
54993;SDS011;40891;47.242;8.648;2023-06-24T14:26:38;2.97;;;2.53;;
54993;SDS011;40891;47.242;8.648;2023-06-24T14:29:03;5.13;;;3.72;;
54993;SDS011;40891;47.242;8.648;2023-06-24T14:31:29;2.83;;;2.63;;
54993;SDS011;40891;47.242;8.648;2023-06-24T14:33:55;3.08;;;2.47;;
54993;SDS011;40891;47.242;8.648;2023-06-24T14:36:20;3.05;;;2.58;;
54993;SDS011;40891;47.242;8.648;2023-06-24T14:38:45;4.75;;;2.65;;
54993;SDS011;40891;47.242;8.648;2023-06-24T14:41:11;2.97;;;2.53;;
54993;SDS011;40891;47.242;8.648;2023-06-24T14:43:36;2.85;;;2.53;;
54993;SDS011;40891;47.242;8.648;2023-06-24T14:46:01;4.25;;;2.75;;
54993;SDS011;40891;47.242;8.648;2023-06-24T14:48:27;4.07;;;3.40;;
54993;SDS011;40891;47.242;8.648;2023-06-24T14:50:52;2.97;;;2.70;;
54993;SDS011;40891;47.242;8.648;2023-06-24T14:53:18;3.03;;;2.35;;
54993;SDS011;40891;47.242;8.648;2023-06-24T14:55:44;3.85;;;2.75;;
54993;SDS011;40891;47.242;8.648;2023-06-24T14:58:10;2.83;;;2.53;;
54993;SDS011;40891;47.242;8.648;2023-06-24T15:00:35;2.90;;;2.40;;
54993;SDS011;40891;47.242;8.648;2023-06-24T15:03:00;3.25;;;2.67;;